createdAt,value
2022-12-31T00:00:26.385Z,47.65
2022-12-31T00:03:29.713Z,42.90
2022-12-31T00:06:35.174Z,43.45
2022-12-31T00:09:38.831Z,44.35
2022-12-31T00:12:42.299Z,43.72
2022-12-31T00:15:45.661Z,43.40
2022-12-31T00:18:51.231Z,41.23
2022-12-31T00:21:54.830Z,42.47
2022-12-31T00:24:58.067Z,43.72
2022-12-31T00:28:04.413Z,42.25
2022-12-31T00:31:13.108Z,43.70
2022-12-31T00:34:16.456Z,38.25
2022-12-31T00:37:19.699Z,40.05
2022-12-31T00:40:23.377Z,37.88
2022-12-31T00:43:26.574Z,38.47
2022-12-31T00:46:29.864Z,38.38
2022-12-31T00:49:33.134Z,45.28
2022-12-31T00:52:36.371Z,37.97
2022-12-31T00:55:39.499Z,41.20
2022-12-31T00:58:43.349Z,38.33
2022-12-31T01:01:46.831Z,41.25
2022-12-31T01:04:50.317Z,42.33
2022-12-31T01:07:53.499Z,42.17
2022-12-31T01:11:15.419Z,44.50
2022-12-31T01:14:20.621Z,39.72
2022-12-31T01:17:23.837Z,40.03
2022-12-31T01:20:28.543Z,39.70
2022-12-31T01:23:32.033Z,38.50
2022-12-31T01:26:35.637Z,39.75
2022-12-31T01:29:38.904Z,40.17
2022-12-31T01:32:42.071Z,40.60
2022-12-31T01:35:45.343Z,39.05
2022-12-31T01:38:48.687Z,42.35
2022-12-31T01:41:51.928Z,39.75
2022-12-31T01:44:56.446Z,41.50
2022-12-31T01:48:00.763Z,39.90
2022-12-31T01:51:05.293Z,38.63
2022-12-31T01:54:10.948Z,39.67
2022-12-31T01:57:15.815Z,41.88
2022-12-31T02:00:19.819Z,38.63
2022-12-31T02:03:24.338Z,39.00
2022-12-31T02:06:35.080Z,38.75
2022-12-31T02:09:41.078Z,39.30
2022-12-31T02:12:44.397Z,40.17
2022-12-31T02:16:04.952Z,39.03
2022-12-31T02:19:36.046Z,38.22
2022-12-31T02:22:48.189Z,40.55
2022-12-31T02:26:29.504Z,38.80
2022-12-31T02:29:57.175Z,38.17
2022-12-31T02:33:16.123Z,39.38
2022-12-31T02:36:26.473Z,40.08
2022-12-31T02:39:30.145Z,38.63
2022-12-31T02:42:33.403Z,41.38
2022-12-31T02:45:42.992Z,40.00
2022-12-31T02:49:06.101Z,39.25
2022-12-31T02:52:56.129Z,40.63
2022-12-31T02:56:03.279Z,42.10
2022-12-31T02:59:35.643Z,39.60
2022-12-31T03:02:42.169Z,42.67
2022-12-31T03:05:47.637Z,42.93
2022-12-31T03:09:11.912Z,43.13
2022-12-31T03:12:34.901Z,42.58
2022-12-31T03:15:39.024Z,40.67
2022-12-31T03:19:01.198Z,41.53
2022-12-31T03:22:23.311Z,40.20
2022-12-31T03:25:36.081Z,40.65
2022-12-31T03:28:47.948Z,40.00
2022-12-31T03:31:51.355Z,43.40
2022-12-31T03:34:55.974Z,39.88
2022-12-31T03:37:59.421Z,40.28
2022-12-31T03:41:03.367Z,42.03
2022-12-31T03:44:06.576Z,41.42
2022-12-31T03:47:09.719Z,44.85
2022-12-31T03:50:14.967Z,40.60
2022-12-31T03:53:18.346Z,43.30
2022-12-31T03:56:21.572Z,43.35
2022-12-31T03:59:24.827Z,41.83
2022-12-31T04:02:29.283Z,46.10
2022-12-31T04:05:33.682Z,41.70
2022-12-31T04:08:36.907Z,45.50
2022-12-31T04:11:40.273Z,44.75
2022-12-31T04:14:43.494Z,50.10
2022-12-31T04:17:47.903Z,45.17
2022-12-31T04:20:51.266Z,44.70
2022-12-31T04:23:54.485Z,47.22
2022-12-31T04:27:02.091Z,49.03
2022-12-31T04:30:09.777Z,46.65
2022-12-31T04:33:13.299Z,45.10
2022-12-31T04:36:16.813Z,47.35
2022-12-31T04:39:20.001Z,50.20
2022-12-31T04:42:23.111Z,44.58
2022-12-31T04:45:26.299Z,44.45
2022-12-31T04:48:29.879Z,47.90
2022-12-31T04:51:33.813Z,46.78
2022-12-31T04:54:36.970Z,43.33
2022-12-31T04:57:42.215Z,47.45
2022-12-31T05:00:49.671Z,49.00
2022-12-31T05:03:52.987Z,47.10
2022-12-31T05:06:56.260Z,47.23
2022-12-31T05:09:59.729Z,47.47
2022-12-31T05:13:03.180Z,49.03
2022-12-31T05:16:08.095Z,48.22
2022-12-31T05:19:11.320Z,48.00
2022-12-31T05:22:29.769Z,46.15
2022-12-31T05:25:33.397Z,48.17
2022-12-31T05:28:36.650Z,50.38
2022-12-31T05:31:39.872Z,48.93
2022-12-31T05:34:43.622Z,45.05
2022-12-31T05:37:46.847Z,44.13
2022-12-31T05:40:50.370Z,45.15
2022-12-31T05:43:53.525Z,49.25
2022-12-31T05:46:56.708Z,47.90
2022-12-31T05:50:00.040Z,45.83
2022-12-31T05:53:03.514Z,47.08
2022-12-31T05:56:06.904Z,48.08
2022-12-31T05:59:10.329Z,42.85
2022-12-31T06:02:13.588Z,47.25
2022-12-31T06:05:20.988Z,43.25
2022-12-31T06:08:27.515Z,46.15
2022-12-31T06:11:35.776Z,46.42
2022-12-31T06:14:45.263Z,43.53
2022-12-31T06:17:48.858Z,47.45
2022-12-31T06:20:52.042Z,45.38
2022-12-31T06:23:55.354Z,42.00
2022-12-31T06:26:58.606Z,43.00
2022-12-31T06:30:01.861Z,44.38
2022-12-31T06:33:05.962Z,44.05
2022-12-31T06:36:12.615Z,43.53
2022-12-31T06:39:15.945Z,39.13
2022-12-31T06:42:19.176Z,44.80
2022-12-31T06:45:22.375Z,39.15
2022-12-31T06:48:25.700Z,34.60
2022-12-31T06:51:28.996Z,37.30
2022-12-31T06:54:32.446Z,36.92
2022-12-31T06:57:36.520Z,38.92
2022-12-31T07:00:44.849Z,36.47
2022-12-31T07:04:10.248Z,37.45
2022-12-31T07:07:28.318Z,37.13
2022-12-31T07:10:31.494Z,35.05
2022-12-31T07:14:03.776Z,38.90
2022-12-31T07:17:42.789Z,36.13
2022-12-31T07:20:46.259Z,34.47
2022-12-31T07:23:49.978Z,37.33
2022-12-31T07:27:25.281Z,31.73
2022-12-31T07:30:37.854Z,35.38
2022-12-31T07:33:46.342Z,32.40
2022-12-31T07:37:02.374Z,28.98
2022-12-31T07:40:20.681Z,29.97
2022-12-31T07:43:33.055Z,29.48
2022-12-31T07:46:39.081Z,33.90
2022-12-31T07:49:44.106Z,28.48
2022-12-31T07:52:47.801Z,31.95
2022-12-31T07:55:56.455Z,30.00
2022-12-31T07:59:23.900Z,25.52
2022-12-31T08:02:57.084Z,25.48
2022-12-31T08:06:07.086Z,20.77
2022-12-31T08:09:25.616Z,22.80
2022-12-31T08:12:34.180Z,18.63
2022-12-31T08:15:39.645Z,19.38
2022-12-31T08:18:43.099Z,19.48
2022-12-31T08:22:05.177Z,19.17
2022-12-31T08:25:22.927Z,16.65
2022-12-31T08:28:29.216Z,59.20
2022-12-31T08:31:53.616Z,21.60
2022-12-31T08:35:07.022Z,19.38
2022-12-31T08:38:21.308Z,18.58
2022-12-31T08:41:39.037Z,17.55
2022-12-31T08:44:59.247Z,17.37
2022-12-31T08:48:26.809Z,17.17
2022-12-31T08:51:30.283Z,17.60
2022-12-31T08:54:33.719Z,21.13
2022-12-31T08:58:08.444Z,16.73
2022-12-31T09:01:16.983Z,17.53
2022-12-31T09:04:51.041Z,18.45
2022-12-31T09:08:21.588Z,20.38
2022-12-31T09:11:52.113Z,18.33
2022-12-31T09:15:04.766Z,20.98
2022-12-31T09:18:11.681Z,18.13
2022-12-31T09:21:16.566Z,16.52
2022-12-31T09:24:19.995Z,19.90
2022-12-31T09:27:32.193Z,16.08
2022-12-31T09:30:50.512Z,17.85
2022-12-31T09:34:08.118Z,15.27
2022-12-31T09:37:36.482Z,16.42
2022-12-31T09:41:07.018Z,18.35
2022-12-31T09:44:47.753Z,13.20
2022-12-31T09:48:33.497Z,14.38
2022-12-31T09:51:54.132Z,15.30
2022-12-31T09:55:23.010Z,13.73
2022-12-31T09:58:45.377Z,13.65
2022-12-31T10:02:15.375Z,16.67
2022-12-31T10:05:59.851Z,14.27
2022-12-31T10:09:30.469Z,18.13
2022-12-31T10:13:21.127Z,17.02
2022-12-31T10:16:39.149Z,15.15
2022-12-31T10:20:14.967Z,15.70
2022-12-31T10:23:24.739Z,14.10
2022-12-31T10:26:39.690Z,14.67
2022-12-31T10:29:57.942Z,15.82
2022-12-31T10:33:21.675Z,15.15
2022-12-31T10:36:42.559Z,14.63
2022-12-31T10:40:07.749Z,14.25
2022-12-31T10:43:55.293Z,14.20
2022-12-31T10:47:22.101Z,17.02
2022-12-31T10:51:06.727Z,17.33
2022-12-31T10:54:24.797Z,14.95
2022-12-31T10:58:11.057Z,14.48
2022-12-31T11:01:41.196Z,15.73
2022-12-31T11:05:02.846Z,17.75
2022-12-31T11:08:17.544Z,15.93
2022-12-31T11:11:35.452Z,14.80
2022-12-31T11:14:58.115Z,19.15
2022-12-31T11:18:10.085Z,11.87
2022-12-31T11:22:02.473Z,13.48
2022-12-31T11:25:33.350Z,11.52
2022-12-31T11:29:07.060Z,11.18
2022-12-31T11:32:35.814Z,16.60
2022-12-31T11:36:20.219Z,15.77
2022-12-31T11:39:51.380Z,14.00
2022-12-31T11:42:54.636Z,11.98
2022-12-31T11:46:37.010Z,14.40
2022-12-31T11:49:54.776Z,15.80
2022-12-31T11:53:02.139Z,15.63
2022-12-31T11:56:18.478Z,13.25
2022-12-31T11:59:22.729Z,15.23
2022-12-31T12:02:34.068Z,14.93
2022-12-31T12:05:39.135Z,13.80
2022-12-31T12:08:44.207Z,16.23
2022-12-31T12:11:57.541Z,13.13
2022-12-31T12:15:06.683Z,20.80
2022-12-31T12:18:34.187Z,14.25
2022-12-31T12:21:49.297Z,16.17
2022-12-31T12:25:07.533Z,13.57
2022-12-31T12:28:23.686Z,15.85
2022-12-31T12:31:27.600Z,15.38
2022-12-31T12:34:33.596Z,12.98
2022-12-31T12:37:37.103Z,13.40
2022-12-31T12:40:41.697Z,14.97
2022-12-31T12:43:44.874Z,19.02
2022-12-31T12:46:50.033Z,12.98
2022-12-31T12:49:55.201Z,15.20
2022-12-31T12:53:23.111Z,15.40
2022-12-31T12:56:43.027Z,15.90
2022-12-31T12:59:46.319Z,15.68
2022-12-31T13:02:52.739Z,12.10
2022-12-31T13:06:22.720Z,16.17
2022-12-31T13:09:38.791Z,13.38
2022-12-31T13:16:45.491Z,11.95
2022-12-31T13:19:58.008Z,13.38
2022-12-31T13:23:14.875Z,11.55
2022-12-31T13:26:44.914Z,11.88
2022-12-31T13:29:49.344Z,15.33
2022-12-31T13:33:07.477Z,14.38
2022-12-31T13:36:39.680Z,17.02
2022-12-31T13:39:46.222Z,10.98
2022-12-31T13:43:01.253Z,11.82
2022-12-31T13:46:34.947Z,11.13
2022-12-31T13:49:52.399Z,12.95
2022-12-31T13:53:16.205Z,16.23
2022-12-31T13:56:25.705Z,17.05
2022-12-31T13:59:34.534Z,9.57
2022-12-31T14:02:56.781Z,10.23
2022-12-31T14:06:13.402Z,11.50
2022-12-31T14:09:31.282Z,11.38
2022-12-31T14:13:15.904Z,12.15
2022-12-31T14:16:19.048Z,13.38
2022-12-31T14:19:58.450Z,12.63
2022-12-31T14:23:36.670Z,15.70
2022-12-31T14:26:47.632Z,12.05
2022-12-31T14:30:06.255Z,10.55
2022-12-31T14:33:36.245Z,10.55
2022-12-31T14:37:07.664Z,14.17
2022-12-31T14:40:52.017Z,15.70
2022-12-31T14:44:06.970Z,11.52
2022-12-31T14:47:49.209Z,12.73
2022-12-31T14:50:58.046Z,11.32
2022-12-31T14:54:02.179Z,12.17
2022-12-31T14:57:17.619Z,11.25
2022-12-31T15:00:51.077Z,14.57
2022-12-31T15:03:57.811Z,11.93
2022-12-31T15:07:29.367Z,12.93
2022-12-31T15:10:35.344Z,15.70
2022-12-31T15:14:06.602Z,13.40
2022-12-31T15:17:27.815Z,16.85
2022-12-31T15:21:17.864Z,17.52
2022-12-31T15:24:27.359Z,15.30
2022-12-31T15:27:36.812Z,16.03
2022-12-31T15:30:48.557Z,15.50
2022-12-31T15:34:23.864Z,16.80
2022-12-31T15:37:35.863Z,18.33
2022-12-31T15:40:50.954Z,13.00
2022-12-31T15:44:21.981Z,21.43
2022-12-31T15:47:43.303Z,19.55
2022-12-31T15:50:48.416Z,22.50
2022-12-31T15:53:55.095Z,19.38
2022-12-31T15:57:00.244Z,22.05
2022-12-31T16:00:28.561Z,17.60
2022-12-31T16:03:32.192Z,24.83
2022-12-31T16:06:38.169Z,21.38
2022-12-31T16:09:41.685Z,15.90
2022-12-31T16:12:45.589Z,16.35
2022-12-31T16:16:00.239Z,17.23
2022-12-31T16:19:03.756Z,16.02
2022-12-31T16:22:17.179Z,14.77
2022-12-31T16:25:31.292Z,17.33
2022-12-31T16:28:35.707Z,15.85
2022-12-31T16:31:40.651Z,19.97
2022-12-31T16:34:44.004Z,17.60
2022-12-31T16:37:47.267Z,17.95
2022-12-31T16:41:02.455Z,15.40
2022-12-31T16:44:10.045Z,16.38
2022-12-31T16:47:20.820Z,17.10
2022-12-31T16:50:25.835Z,16.70
2022-12-31T16:53:32.577Z,19.08
2022-12-31T16:56:39.435Z,19.40
2022-12-31T16:59:46.717Z,17.60
2022-12-31T17:03:08.877Z,19.57
2022-12-31T17:06:23.016Z,18.30
2022-12-31T17:09:36.609Z,22.70
2022-12-31T17:13:25.546Z,21.20
2022-12-31T17:16:16.972Z,21.17
2022-12-31T17:19:37.593Z,21.70
2022-12-31T17:22:44.994Z,23.13
2022-12-31T17:25:48.315Z,30.52
2022-12-31T17:28:53.613Z,24.35
2022-12-31T17:32:00.983Z,25.77
2022-12-31T17:35:28.487Z,31.70
2022-12-31T17:38:33.258Z,26.83
2022-12-31T17:41:36.595Z,23.23
2022-12-31T17:44:43.587Z,23.85
2022-12-31T17:47:51.031Z,24.27
2022-12-31T17:50:57.570Z,19.77
2022-12-31T17:54:01.917Z,18.83
2022-12-31T17:57:05.413Z,20.95
2022-12-31T18:00:16.078Z,18.55
2022-12-31T18:03:19.349Z,21.25
2022-12-31T18:06:22.746Z,20.27
2022-12-31T18:09:26.035Z,21.00
2022-12-31T18:12:29.240Z,20.10
2022-12-31T18:15:32.558Z,18.88
2022-12-31T18:18:39.873Z,17.88
2022-12-31T18:21:45.054Z,21.00
2022-12-31T18:24:54.408Z,19.58
2022-12-31T18:27:57.634Z,23.27
2022-12-31T18:31:00.918Z,19.40
2022-12-31T18:34:04.330Z,19.63
2022-12-31T18:37:19.515Z,22.37
2022-12-31T18:40:26.674Z,22.23
2022-12-31T18:43:29.925Z,21.33
2022-12-31T18:46:33.193Z,19.30
2022-12-31T18:49:37.666Z,21.08
2022-12-31T18:52:41.169Z,21.23
2022-12-31T18:55:53.067Z,19.15
2022-12-31T18:58:56.398Z,18.02
2022-12-31T19:01:59.933Z,15.65
2022-12-31T19:05:15.233Z,27.23
2022-12-31T19:08:22.112Z,18.73
2022-12-31T19:11:25.225Z,17.63
2022-12-31T19:14:28.878Z,14.52
2022-12-31T19:17:32.002Z,17.67
2022-12-31T19:20:35.605Z,21.70
2022-12-31T19:23:38.786Z,23.17
2022-12-31T19:26:43.555Z,26.42
2022-12-31T19:29:46.893Z,19.08
2022-12-31T19:32:50.766Z,23.05
2022-12-31T19:35:54.170Z,24.67
2022-12-31T19:38:57.351Z,19.20
2022-12-31T19:42:00.721Z,23.60
2022-12-31T19:45:04.343Z,24.42
2022-12-31T19:48:12.467Z,27.65
2022-12-31T19:51:20.919Z,26.77
2022-12-31T19:54:24.094Z,23.63
2022-12-31T19:57:27.340Z,26.83
2022-12-31T20:00:32.557Z,18.42
2022-12-31T20:03:36.174Z,21.55
2022-12-31T20:06:39.323Z,26.40
2022-12-31T20:09:42.496Z,19.13
2022-12-31T20:12:45.668Z,21.52
2022-12-31T20:15:49.186Z,20.05
2022-12-31T20:18:52.790Z,27.48
2022-12-31T20:21:56.038Z,19.20
2022-12-31T20:24:59.211Z,22.63
2022-12-31T20:28:02.463Z,19.88
2022-12-31T20:31:07.265Z,19.52
2022-12-31T20:34:11.041Z,23.00
2022-12-31T20:37:14.303Z,28.70
2022-12-31T20:40:18.122Z,25.17
2022-12-31T20:43:21.319Z,28.05
2022-12-31T20:46:27.207Z,25.98
2022-12-31T20:50:00.787Z,25.67
2022-12-31T20:52:53.729Z,21.00
2022-12-31T20:55:56.951Z,24.23
2022-12-31T20:59:00.684Z,25.38
2022-12-31T21:05:27.289Z,27.08
2022-12-31T21:08:34.701Z,22.60
2022-12-31T21:11:57.362Z,22.03
2022-12-31T21:15:02.420Z,25.75
2022-12-31T21:18:05.822Z,21.20
2022-12-31T21:21:11.239Z,18.95
2022-12-31T21:24:20.217Z,23.45
2022-12-31T21:27:26.967Z,27.83
2022-12-31T21:30:30.347Z,23.95
2022-12-31T21:33:33.930Z,28.77
2022-12-31T21:36:37.112Z,27.33
2022-12-31T21:39:40.293Z,34.53
2022-12-31T21:42:43.511Z,24.40
2022-12-31T21:45:46.920Z,27.00
2022-12-31T21:48:55.745Z,27.50
2022-12-31T21:52:17.708Z,28.08
2022-12-31T21:55:39.271Z,28.98
2022-12-31T21:58:45.155Z,27.17
2022-12-31T22:02:07.547Z,31.85
2022-12-31T22:05:19.767Z,29.77
2022-12-31T22:08:27.950Z,25.13
2022-12-31T22:11:31.226Z,24.98
2022-12-31T22:14:35.288Z,26.00
2022-12-31T22:17:38.491Z,28.20
2022-12-31T22:20:42.098Z,31.95
2022-12-31T22:23:46.637Z,26.98
2022-12-31T22:26:50.941Z,31.58
2022-12-31T22:29:54.172Z,28.77
2022-12-31T22:32:57.700Z,34.25
2022-12-31T22:36:05.833Z,29.95
2022-12-31T22:39:44.142Z,27.40
2022-12-31T22:42:38.665Z,32.33
2022-12-31T22:45:41.914Z,35.37
2022-12-31T22:48:45.552Z,33.05
2022-12-31T22:51:58.709Z,32.55
2022-12-31T22:55:04.258Z,31.70
2022-12-31T22:58:07.438Z,32.58
2022-12-31T23:01:22.544Z,35.47
2022-12-31T23:04:25.834Z,33.78
2022-12-31T23:07:29.022Z,35.17
2022-12-31T23:10:51.107Z,34.80
2022-12-31T23:14:12.860Z,36.22
2022-12-31T23:17:41.392Z,34.50
2022-12-31T23:21:03.359Z,36.38
2022-12-31T23:24:11.294Z,38.05
2022-12-31T23:27:19.012Z,35.85
2022-12-31T23:30:22.299Z,37.05
2022-12-31T23:33:26.252Z,36.33
2022-12-31T23:36:29.737Z,40.20
2022-12-31T23:39:33.404Z,35.42
2022-12-31T23:42:36.671Z,36.05
2022-12-31T23:45:39.888Z,35.50
2022-12-31T23:48:43.857Z,38.37
2022-12-31T23:51:47.154Z,42.00
2022-12-31T23:54:50.364Z,37.20
2022-12-31T23:58:18.286Z,37.67
